66°F Temp
66°F Dewpoint
100% Humidity
Temperature
MPH
0 KM/H
KTS
Calm
Due North

Wind Speed
Thunderstorm
Conditions
Pressure 1014.52 (hPa) - 29.96 (in)
Visibility 10.0 (mi) - 16.1 (km)

Current Conditions
KMLJ
Location 9(mi)
Metar :KMLJ 270355Z AUTO 00000KT 10SM VCTS OVC029 19/19 A2996 RMK AO2 LTG DSNT ALQDS
Sun 26th March 23:55 pm

Airport
  Metar Aviation API Data Provided by https://www.checkwx.com/ PHP scripts by weather34.com ©2023